createdAt,value
2023-05-02T00:01:12.465Z,0.60
2023-05-02T00:03:42.295Z,0.70
2023-05-02T00:06:12.245Z,0.77
2023-05-02T00:08:40.717Z,0.80
2023-05-02T00:11:09.436Z,0.70
2023-05-02T00:13:37.682Z,0.77
2023-05-02T00:16:06.418Z,0.90
2023-05-02T00:18:35.223Z,0.70
2023-05-02T00:21:03.415Z,0.80
2023-05-02T00:23:32.953Z,0.70
2023-05-02T00:26:01.556Z,0.70
2023-05-02T00:28:30.142Z,0.80
2023-05-02T00:30:58.673Z,0.70
2023-05-02T00:33:27.007Z,0.50
2023-05-02T00:35:55.025Z,0.70
2023-05-02T00:38:23.504Z,0.77
2023-05-02T00:40:53.723Z,0.80
2023-05-02T00:43:22.488Z,0.70
2023-05-02T00:45:52.561Z,0.80
2023-05-02T00:48:22.345Z,1.00
2023-05-02T00:50:50.538Z,1.00
2023-05-02T00:53:18.873Z,0.90
2023-05-02T00:55:47.458Z,0.97
2023-05-02T00:58:20.121Z,0.87
2023-05-02T01:01:02.348Z,1.07
2023-05-02T01:03:39.107Z,0.90
2023-05-02T01:06:17.006Z,0.80
2023-05-02T01:08:52.549Z,1.00
2023-05-02T01:11:30.480Z,0.83
2023-05-02T01:14:03.030Z,0.80
2023-05-02T01:16:34.589Z,0.90
2023-05-02T01:19:05.021Z,0.83
2023-05-02T01:21:35.604Z,0.83
2023-05-02T01:24:09.925Z,0.93
2023-05-02T01:26:52.410Z,0.80
2023-05-02T01:29:24.448Z,0.90
2023-05-02T01:31:53.739Z,1.20
2023-05-02T01:34:24.422Z,1.00
2023-05-02T01:36:53.674Z,1.03
2023-05-02T01:39:24.495Z,1.10
2023-05-02T01:41:56.043Z,1.03
2023-05-02T01:44:27.344Z,1.27
2023-05-02T01:46:57.809Z,1.30
2023-05-02T01:49:28.447Z,1.40
2023-05-02T01:51:59.775Z,1.30
2023-05-02T01:54:28.824Z,1.30
2023-05-02T01:56:58.039Z,1.30
2023-05-02T01:59:31.766Z,1.50
2023-05-02T02:02:03.478Z,1.23
2023-05-02T02:04:32.893Z,1.50
2023-05-02T02:07:07.525Z,1.50
2023-05-02T02:09:36.036Z,1.43
2023-05-02T02:12:08.841Z,2.00
2023-05-02T02:14:40.650Z,2.40
2023-05-02T02:17:14.771Z,2.70
2023-05-02T02:19:44.101Z,2.30
2023-05-02T02:22:15.021Z,1.80
2023-05-02T02:24:45.013Z,1.73
2023-05-02T02:27:13.236Z,1.90
2023-05-02T02:29:42.653Z,1.77
2023-05-02T02:32:11.058Z,1.83
2023-05-02T02:34:39.477Z,2.03
2023-05-02T02:37:12.529Z,1.80
2023-05-02T02:39:50.635Z,1.80
2023-05-02T02:42:27.100Z,2.03
2023-05-02T02:45:12.169Z,1.97
2023-05-02T02:47:45.444Z,2.03
2023-05-02T02:50:21.425Z,2.30
2023-05-02T02:52:56.923Z,2.10
2023-05-02T02:55:38.229Z,1.90
2023-05-02T02:58:17.696Z,2.00
2023-05-02T03:00:50.236Z,2.20
2023-05-02T03:03:20.805Z,2.17
2023-05-02T03:05:49.885Z,2.20
2023-05-02T03:08:18.107Z,2.10
2023-05-02T03:10:46.372Z,2.20
2023-05-02T03:13:14.548Z,2.30
2023-05-02T03:16:36.836Z,2.20
2023-05-02T03:19:07.141Z,2.20
2023-05-02T03:21:36.357Z,2.23
2023-05-02T03:24:05.795Z,2.37
2023-05-02T03:26:34.136Z,2.17
2023-05-02T03:29:02.466Z,2.00
2023-05-02T03:31:31.249Z,2.17
2023-05-02T03:33:59.590Z,2.07
2023-05-02T03:36:29.519Z,2.20
2023-05-02T03:38:57.896Z,2.20
2023-05-02T03:41:26.256Z,2.20
2023-05-02T03:43:55.072Z,2.30
2023-05-02T03:46:23.523Z,3.10
2023-05-02T03:48:52.212Z,2.30
2023-05-02T03:51:20.428Z,2.23
2023-05-02T03:53:50.060Z,2.23
2023-05-02T03:56:21.095Z,1.93
2023-05-02T03:58:50.686Z,2.37
2023-05-02T04:01:19.133Z,2.20
2023-05-02T04:03:47.361Z,2.10
2023-05-02T04:06:16.295Z,2.30
2023-05-02T04:08:44.703Z,2.23
2023-05-02T04:11:14.732Z,2.07
2023-05-02T04:13:43.245Z,2.17
2023-05-02T04:16:11.634Z,2.13
2023-05-02T04:18:39.740Z,2.23
2023-05-02T04:21:10.643Z,2.37
2023-05-02T04:23:39.581Z,2.03
2023-05-02T04:26:07.877Z,2.30
2023-05-02T04:28:37.938Z,2.40
2023-05-02T04:31:06.175Z,2.30
2023-05-02T04:33:34.542Z,2.27
2023-05-02T04:36:03.154Z,2.20
2023-05-02T04:38:31.428Z,2.20
2023-05-02T04:40:59.768Z,2.30
2023-05-02T04:43:38.913Z,2.20
2023-05-02T04:46:07.046Z,2.30
2023-05-02T04:48:35.601Z,2.00
2023-05-02T04:51:04.024Z,2.07
2023-05-02T04:53:32.339Z,2.03
2023-05-02T04:56:00.750Z,2.30
2023-05-02T04:58:29.577Z,2.37
2023-05-02T05:01:02.101Z,2.10
2023-05-02T05:03:31.420Z,2.30
2023-05-02T05:05:59.698Z,2.13
2023-05-02T05:08:28.115Z,2.50
2023-05-02T05:10:56.791Z,2.10
2023-05-02T05:13:25.134Z,2.40
2023-05-02T05:15:54.235Z,2.50
2023-05-02T05:18:23.921Z,3.07
2023-05-02T05:20:52.169Z,2.37
2023-05-02T05:23:20.890Z,2.17
2023-05-02T05:25:49.375Z,2.20
2023-05-02T05:28:18.652Z,2.40
2023-05-02T05:30:46.986Z,2.50
2023-05-02T05:33:15.877Z,2.20
2023-05-02T05:35:45.869Z,2.20
2023-05-02T05:38:14.144Z,2.50
2023-05-02T05:40:42.453Z,2.33
2023-05-02T05:43:11.042Z,2.30
2023-05-02T05:45:39.314Z,2.50
2023-05-02T05:48:08.204Z,2.20
2023-05-02T05:50:36.754Z,2.13
2023-05-02T05:53:06.254Z,2.10
2023-05-02T05:55:37.227Z,2.20
2023-05-02T05:58:05.800Z,2.13
2023-05-02T06:00:36.310Z,1.97
2023-05-02T06:03:06.605Z,2.20
2023-05-02T06:05:36.092Z,2.23
2023-05-02T06:08:06.294Z,2.30
2023-05-02T06:10:34.555Z,2.37
2023-05-02T06:13:02.807Z,2.67
2023-05-02T06:15:31.818Z,2.90
2023-05-02T06:18:00.201Z,2.47
2023-05-02T06:20:28.435Z,1.90
2023-05-02T06:22:56.892Z,2.70
2023-05-02T06:25:26.542Z,2.50
2023-05-02T06:27:54.703Z,2.10
2023-05-02T06:30:23.220Z,2.00
2023-05-02T06:32:51.277Z,3.20
2023-05-02T06:35:19.663Z,7.03
2023-05-02T06:37:48.014Z,2.37
2023-05-02T06:40:16.264Z,2.00
2023-05-02T06:42:45.739Z,1.87
2023-05-02T06:45:14.194Z,2.10
2023-05-02T06:47:42.256Z,2.10
2023-05-02T06:50:11.588Z,2.00
2023-05-02T06:52:40.090Z,1.90
2023-05-02T06:55:08.988Z,2.00
2023-05-02T06:57:37.104Z,2.17
2023-05-02T07:00:08.499Z,2.13
2023-05-02T07:02:36.711Z,2.10
2023-05-02T07:05:05.109Z,1.73
2023-05-02T07:07:33.316Z,2.20
2023-05-02T07:10:02.213Z,2.20
2023-05-02T07:12:30.941Z,2.10
2023-05-02T07:14:59.422Z,2.17
2023-05-02T07:17:29.226Z,2.10
2023-05-02T07:19:57.751Z,1.60
2023-05-02T07:22:26.307Z,2.27
2023-05-02T07:24:59.523Z,1.70
2023-05-02T07:27:28.099Z,1.80
2023-05-02T07:29:56.401Z,1.67
2023-05-02T07:32:25.361Z,1.50
2023-05-02T07:34:56.363Z,1.43
2023-05-02T07:37:24.573Z,1.87
2023-05-02T07:39:52.674Z,1.57
2023-05-02T07:42:21.041Z,1.20
2023-05-02T07:44:49.268Z,1.40
2023-05-02T07:47:17.838Z,1.67
2023-05-02T07:49:46.299Z,1.50
2023-05-02T07:52:15.796Z,1.27
2023-05-02T07:54:43.946Z,1.40
2023-05-02T07:57:13.433Z,1.10
2023-05-02T07:59:41.663Z,1.10
2023-05-02T08:02:11.411Z,1.10
2023-05-02T08:04:40.580Z,1.20
2023-05-02T08:07:08.942Z,1.00
2023-05-02T08:09:38.846Z,1.40
2023-05-02T08:12:07.158Z,1.10
2023-05-02T08:14:35.599Z,0.80
2023-05-02T08:17:03.772Z,1.03
2023-05-02T08:19:32.497Z,0.97
2023-05-02T08:22:01.024Z,0.80
2023-05-02T08:24:29.738Z,0.80
2023-05-02T08:26:59.835Z,0.90
2023-05-02T08:29:28.058Z,1.30
2023-05-02T08:31:56.189Z,0.80
2023-05-02T08:34:24.821Z,0.90
2023-05-02T08:36:52.953Z,1.40
2023-05-02T08:39:21.090Z,0.80
2023-05-02T08:41:49.753Z,0.70
2023-05-02T08:44:19.685Z,0.83
2023-05-02T08:46:49.491Z,0.77
2023-05-02T08:49:19.690Z,0.90
2023-05-02T08:51:51.703Z,0.80
2023-05-02T08:54:22.532Z,0.90
2023-05-02T08:56:50.862Z,1.10
2023-05-02T08:59:20.600Z,3.13
2023-05-02T09:01:51.214Z,0.87
2023-05-02T09:04:20.645Z,0.70
2023-05-02T09:06:49.110Z,0.90
2023-05-02T09:09:18.994Z,0.70
2023-05-02T09:11:48.768Z,0.87
2023-05-02T09:14:17.928Z,0.87
2023-05-02T09:16:48.671Z,0.80
2023-05-02T09:19:26.672Z,0.80
2023-05-02T09:22:01.790Z,0.80
2023-05-02T09:24:30.761Z,1.03
2023-05-02T09:27:01.123Z,0.97
2023-05-02T09:29:30.933Z,0.77
2023-05-02T09:32:00.822Z,0.83
2023-05-02T09:34:29.021Z,1.07
2023-05-02T09:36:57.920Z,0.80
2023-05-02T09:39:29.452Z,0.80
2023-05-02T09:41:59.038Z,1.10
2023-05-02T09:44:29.031Z,1.00
2023-05-02T09:46:59.316Z,0.77
2023-05-02T09:49:46.647Z,1.10
2023-05-02T09:52:16.507Z,0.90
2023-05-02T09:54:46.890Z,0.80
2023-05-02T09:57:15.440Z,0.93
2023-05-02T09:59:54.514Z,1.07
2023-05-02T10:02:23.429Z,1.47
2023-05-02T10:04:54.866Z,0.83
2023-05-02T10:07:23.637Z,0.80
2023-05-02T10:09:56.041Z,0.90
2023-05-02T10:12:27.934Z,0.90
2023-05-02T10:15:02.428Z,1.10
2023-05-02T10:17:37.189Z,0.70
2023-05-02T10:20:08.519Z,0.60
2023-05-02T10:22:37.986Z,0.90
2023-05-02T10:25:07.177Z,0.70
2023-05-02T10:27:35.555Z,0.90
2023-05-02T10:30:04.574Z,1.10
2023-05-02T10:32:35.375Z,0.90
2023-05-02T10:35:07.974Z,1.00
2023-05-02T10:37:39.168Z,1.00
2023-05-02T10:40:11.244Z,0.80
2023-05-02T10:42:41.716Z,0.70
2023-05-02T10:45:13.666Z,0.83
2023-05-02T10:47:42.567Z,1.10
2023-05-02T10:50:12.414Z,0.90
2023-05-02T10:52:41.392Z,1.00
2023-05-02T10:55:17.085Z,0.90
2023-05-02T10:58:18.976Z,1.03
2023-05-02T11:00:47.525Z,1.00
2023-05-02T11:03:15.799Z,1.00
2023-05-02T11:06:09.973Z,0.77
2023-05-02T11:08:38.362Z,0.90
2023-05-02T11:11:43.538Z,1.10
2023-05-02T11:14:14.038Z,0.90
2023-05-02T11:17:08.193Z,0.80
2023-05-02T11:20:09.635Z,0.80
2023-05-02T11:22:40.589Z,0.70
2023-05-02T11:25:33.067Z,0.60
2023-05-02T11:28:02.130Z,0.60
2023-05-02T11:30:41.758Z,0.70
2023-05-02T11:33:17.705Z,0.57
2023-05-02T11:35:47.388Z,0.73
2023-05-02T11:38:19.281Z,0.67
2023-05-02T11:40:58.618Z,0.87
2023-05-02T11:43:31.292Z,0.60
2023-05-02T11:46:02.277Z,0.70
2023-05-02T11:48:33.287Z,0.70
2023-05-02T11:51:05.412Z,0.70
2023-05-02T11:53:41.528Z,0.90
2023-05-02T11:56:10.249Z,0.60
2023-05-02T11:58:38.500Z,1.00
2023-05-02T12:01:15.171Z,0.93
2023-05-02T12:03:45.824Z,1.20
2023-05-02T12:06:16.045Z,0.77
2023-05-02T12:08:46.447Z,1.00
2023-05-02T12:11:16.596Z,0.60
2023-05-02T12:13:49.993Z,0.70
2023-05-02T12:16:19.752Z,0.80
2023-05-02T12:18:48.965Z,1.03
2023-05-02T12:21:18.269Z,1.30
2023-05-02T12:23:48.434Z,0.70
2023-05-02T12:26:21.345Z,0.80
2023-05-02T12:28:51.094Z,0.80
2023-05-02T12:31:19.892Z,0.90
2023-05-02T12:33:50.769Z,0.70
2023-05-02T12:36:20.210Z,0.70
2023-05-02T12:38:55.293Z,0.80
2023-05-02T12:41:36.202Z,0.60
2023-05-02T12:44:07.404Z,1.03
2023-05-02T12:46:36.646Z,0.70
2023-05-02T12:49:08.317Z,0.70
2023-05-02T12:51:39.890Z,0.87
2023-05-02T12:54:09.550Z,0.70
2023-05-02T12:56:41.464Z,0.70
2023-05-02T12:59:10.153Z,0.77
2023-05-02T13:01:38.340Z,0.70
2023-05-02T13:04:07.034Z,0.47
2023-05-02T13:06:38.202Z,0.63
2023-05-02T13:09:07.568Z,0.70
2023-05-02T13:11:38.482Z,0.70
2023-05-02T13:14:06.652Z,1.50
2023-05-02T13:16:36.891Z,1.23
2023-05-02T13:19:05.974Z,0.90
2023-05-02T13:21:34.012Z,0.80
2023-05-02T13:24:04.362Z,1.10
2023-05-02T13:26:32.781Z,1.20
2023-05-02T13:29:02.453Z,0.60
2023-05-02T13:31:31.295Z,0.60
2023-05-02T13:34:00.503Z,0.50
2023-05-02T13:36:28.856Z,0.67
2023-05-02T13:38:57.870Z,0.80
2023-05-02T13:41:26.414Z,0.77
2023-05-02T13:43:54.978Z,1.20
2023-05-02T13:46:24.848Z,0.80
2023-05-02T13:48:53.027Z,0.70
2023-05-02T13:51:21.701Z,0.70
2023-05-02T13:53:50.304Z,0.90
2023-05-02T13:56:18.752Z,0.80
2023-05-02T13:58:46.947Z,1.10
2023-05-02T14:01:15.061Z,1.10
2023-05-02T14:03:44.964Z,1.17
2023-05-02T14:06:13.239Z,0.60
2023-05-02T14:08:41.996Z,0.60
2023-05-02T14:11:10.657Z,0.70
2023-05-02T14:13:38.888Z,0.80
2023-05-02T14:16:07.926Z,0.70
2023-05-02T14:18:36.356Z,0.70
2023-05-02T14:21:06.275Z,2.17
2023-05-02T14:23:35.457Z,0.60
2023-05-02T14:26:04.200Z,1.00
2023-05-02T14:28:32.802Z,0.97
2023-05-02T14:31:01.696Z,0.80
2023-05-02T14:33:30.093Z,0.80
2023-05-02T14:35:58.473Z,0.80
2023-05-02T14:38:28.357Z,0.97
2023-05-02T14:40:56.642Z,0.70
2023-05-02T14:43:24.766Z,0.80
2023-05-02T14:45:53.729Z,0.90
2023-05-02T14:48:21.944Z,0.80
2023-05-02T14:50:50.078Z,0.63
2023-05-02T14:53:18.789Z,0.97
2023-05-02T14:55:48.573Z,0.70
2023-05-02T14:58:21.037Z,1.10
2023-05-02T15:00:49.611Z,0.73
2023-05-02T15:03:18.093Z,0.90
2023-05-02T15:05:46.682Z,0.97
2023-05-02T15:08:14.935Z,0.80
2023-05-02T15:10:43.126Z,0.77
2023-05-02T15:13:13.179Z,0.60
2023-05-02T15:15:42.226Z,0.90
2023-05-02T15:18:10.460Z,1.43
2023-05-02T15:20:38.647Z,1.00
2023-05-02T15:23:07.181Z,6.83
2023-05-02T15:25:35.739Z,0.80
2023-05-02T15:28:04.055Z,0.70
2023-05-02T15:30:34.252Z,0.50
2023-05-02T15:33:03.422Z,0.80
2023-05-02T15:35:31.882Z,0.90
2023-05-02T15:38:00.774Z,0.80
2023-05-02T15:40:28.965Z,0.90
2023-05-02T15:42:57.097Z,0.90
2023-05-02T15:45:25.372Z,0.60
2023-05-02T15:47:55.200Z,0.70
2023-05-02T15:50:23.880Z,0.80
2023-05-02T15:52:52.054Z,0.77
2023-05-02T15:55:20.410Z,0.60
2023-05-02T15:57:52.006Z,0.73
2023-05-02T16:00:21.380Z,0.80
2023-05-02T16:02:49.628Z,0.63
2023-05-02T16:05:19.300Z,0.80
2023-05-02T16:07:47.742Z,0.70
2023-05-02T16:10:16.358Z,0.50
2023-05-02T16:12:44.644Z,0.50
2023-05-02T16:15:13.042Z,0.53
2023-05-02T16:17:43.008Z,0.80
2023-05-02T16:20:13.072Z,0.50
2023-05-02T16:22:44.375Z,0.60
2023-05-02T16:25:12.824Z,0.60
2023-05-02T16:27:41.433Z,0.50
2023-05-02T16:30:10.799Z,0.77
2023-05-02T16:32:39.178Z,0.90
2023-05-02T16:35:10.905Z,0.90
2023-05-02T16:37:40.127Z,0.70
2023-05-02T16:40:11.610Z,0.67
2023-05-02T16:42:40.687Z,0.70
2023-05-02T16:45:09.952Z,0.70
2023-05-02T16:47:38.742Z,0.70
2023-05-02T16:50:07.976Z,0.87
2023-05-02T16:52:38.127Z,0.70
2023-05-02T16:55:07.431Z,0.97
2023-05-02T16:57:39.389Z,0.90
2023-05-02T17:00:12.956Z,0.80
2023-05-02T17:02:42.083Z,0.70
2023-05-02T17:05:11.891Z,0.80
2023-05-02T17:07:40.389Z,0.80
2023-05-02T17:10:10.061Z,0.77
2023-05-02T17:12:40.318Z,0.90
2023-05-02T17:15:11.598Z,0.90
2023-05-02T17:17:39.851Z,0.77
2023-05-02T17:20:10.784Z,0.73
2023-05-02T17:22:41.637Z,0.67
2023-05-02T17:25:11.423Z,0.50
2023-05-02T17:27:42.085Z,1.00
2023-05-02T17:30:14.571Z,0.80
2023-05-02T17:32:43.157Z,0.97
2023-05-02T17:35:11.884Z,1.00
2023-05-02T17:37:40.917Z,0.70
2023-05-02T17:40:10.058Z,0.93
2023-05-02T17:42:38.247Z,0.83
2023-05-02T17:45:09.876Z,0.93
2023-05-02T17:47:38.487Z,0.90
2023-05-02T17:50:07.973Z,1.30
2023-05-02T17:52:36.773Z,0.87
2023-05-02T17:55:05.199Z,0.97
2023-05-02T17:57:34.175Z,0.77
2023-05-02T18:00:04.625Z,0.80
2023-05-02T18:02:34.665Z,1.20
2023-05-02T18:05:04.122Z,1.10
2023-05-02T18:07:32.680Z,0.90
2023-05-02T18:10:03.825Z,1.10
2023-05-02T18:12:37.409Z,1.10
2023-05-02T18:15:06.696Z,1.10
2023-05-02T18:17:38.346Z,1.23
2023-05-02T18:20:11.561Z,1.20
2023-05-02T18:22:42.333Z,1.30
2023-05-02T18:25:10.860Z,1.10
2023-05-02T18:27:41.149Z,1.10
2023-05-02T18:30:10.362Z,1.47
2023-05-02T18:32:40.256Z,1.00
2023-05-02T18:35:10.678Z,1.43
2023-05-02T18:37:38.840Z,1.27
2023-05-02T18:40:08.692Z,1.13
2023-05-02T18:42:37.316Z,1.00
2023-05-02T18:45:06.414Z,1.10
2023-05-02T18:47:35.127Z,1.10
2023-05-02T18:50:05.042Z,1.30
2023-05-02T18:52:36.051Z,1.40
2023-05-02T18:55:05.165Z,1.30
2023-05-02T18:57:33.890Z,1.10
2023-05-02T19:00:02.403Z,1.40
2023-05-02T19:02:31.438Z,1.57
2023-05-02T19:05:00.186Z,1.50
2023-05-02T19:07:30.454Z,1.50
2023-05-02T19:09:59.005Z,1.50
2023-05-02T19:12:27.535Z,1.47
2023-05-02T19:14:56.208Z,1.40
2023-05-02T19:17:25.966Z,1.60
2023-05-02T19:19:56.135Z,1.30
2023-05-02T19:22:31.820Z,1.37
2023-05-02T19:25:00.138Z,1.20
2023-05-02T19:27:29.663Z,1.00
2023-05-02T19:29:59.542Z,1.03
2023-05-02T19:32:27.880Z,1.07
2023-05-02T19:34:57.034Z,1.40
2023-05-02T19:37:25.142Z,1.20
2023-05-02T19:39:54.756Z,1.00
2023-05-02T19:42:23.271Z,1.20
2023-05-02T19:44:51.544Z,1.47
2023-05-02T19:47:19.673Z,1.80
2023-05-02T19:49:49.173Z,1.40
2023-05-02T19:52:17.427Z,1.07
2023-05-02T19:54:45.528Z,1.10
2023-05-02T19:57:15.096Z,1.30
2023-05-02T19:59:43.254Z,1.00
2023-05-02T20:02:12.714Z,1.10
2023-05-02T20:04:40.962Z,1.00
2023-05-02T20:07:09.374Z,0.93
2023-05-02T20:09:37.677Z,1.07
2023-05-02T20:12:06.286Z,1.20
2023-05-02T20:14:35.985Z,1.27
2023-05-02T20:17:04.792Z,1.03
2023-05-02T20:19:37.186Z,1.00
2023-05-02T20:22:05.466Z,1.00
2023-05-02T20:24:33.805Z,1.07
2023-05-02T20:27:02.753Z,1.10
2023-05-02T20:29:31.071Z,1.30
2023-05-02T20:32:01.073Z,1.17
2023-05-02T20:34:29.625Z,1.10
2023-05-02T20:36:58.703Z,1.10
2023-05-02T20:39:27.235Z,1.40
2023-05-02T20:41:59.568Z,1.10
2023-05-02T20:44:28.664Z,1.40
2023-05-02T20:46:56.868Z,1.20
2023-05-02T20:49:26.672Z,1.43
2023-05-02T20:51:55.226Z,1.40
2023-05-02T20:54:23.653Z,1.43
2023-05-02T20:56:51.874Z,1.30
2023-05-02T20:59:22.844Z,1.40
2023-05-02T21:01:56.606Z,1.70
2023-05-02T21:04:27.283Z,1.40
2023-05-02T21:06:56.872Z,1.83
2023-05-02T21:09:25.856Z,1.60
2023-05-02T21:11:55.476Z,1.40
2023-05-02T21:14:25.159Z,2.17
2023-05-02T21:16:53.823Z,1.80
2023-05-02T21:19:25.102Z,1.50
2023-05-02T21:21:55.203Z,1.70
2023-05-02T21:24:23.301Z,1.77
2023-05-02T21:26:58.665Z,2.30
2023-05-02T21:29:28.056Z,2.83
2023-05-02T21:31:56.257Z,2.20
2023-05-02T21:34:24.704Z,2.70
2023-05-02T21:36:54.254Z,2.43
2023-05-02T21:39:22.349Z,2.80
2023-05-02T21:41:50.708Z,2.70
2023-05-02T21:44:22.397Z,2.77
2023-05-02T21:46:56.802Z,3.30
2023-05-02T21:49:41.408Z,3.87
2023-05-02T21:52:22.123Z,2.80
2023-05-02T21:55:05.164Z,3.60
2023-05-02T21:57:41.998Z,3.20
2023-05-02T22:00:14.098Z,3.67
2023-05-02T22:02:44.915Z,4.00
2023-05-02T22:05:17.869Z,3.23
2023-05-02T22:07:50.548Z,3.80
2023-05-02T22:10:19.533Z,3.23
2023-05-02T22:12:49.327Z,3.93
2023-05-02T22:15:19.296Z,2.90
2023-05-02T22:17:52.736Z,3.50
2023-05-02T22:20:26.255Z,3.60
2023-05-02T22:23:04.279Z,3.90
2023-05-02T22:25:42.513Z,3.70
2023-05-02T22:28:12.311Z,3.63
2023-05-02T22:30:43.098Z,3.73
2023-05-02T22:33:12.268Z,4.13
2023-05-02T22:35:41.129Z,3.90
2023-05-02T22:38:11.260Z,4.30
2023-05-02T22:40:39.842Z,3.70
2023-05-02T22:43:08.203Z,4.17
2023-05-02T22:45:37.037Z,3.40
2023-05-02T22:48:05.852Z,3.87
2023-05-02T22:50:34.160Z,3.47
2023-05-02T22:53:04.295Z,4.00
2023-05-02T22:55:34.191Z,3.93
2023-05-02T22:58:02.891Z,3.90
2023-05-02T23:00:31.634Z,3.53
2023-05-02T23:03:00.300Z,3.83
2023-05-02T23:05:32.084Z,3.67
2023-05-02T23:08:00.804Z,3.80
2023-05-02T23:10:28.977Z,4.00
2023-05-02T23:12:58.542Z,3.70
2023-05-02T23:15:27.525Z,3.73
2023-05-02T23:17:55.930Z,3.80
2023-05-02T23:20:24.050Z,4.13
2023-05-02T23:22:52.835Z,3.70
2023-05-02T23:25:21.524Z,4.00
2023-05-02T23:27:49.852Z,4.00
2023-05-02T23:30:19.853Z,3.83
2023-05-02T23:32:48.096Z,3.27
2023-05-02T23:35:16.146Z,3.70
2023-05-02T23:37:44.818Z,3.63
2023-05-02T23:40:13.565Z,3.23
2023-05-02T23:42:41.949Z,3.70
2023-05-02T23:45:11.046Z,3.30
2023-05-02T23:47:40.909Z,3.50
2023-05-02T23:50:09.861Z,3.53
2023-05-02T23:52:38.534Z,4.13
2023-05-02T23:55:10.768Z,3.50
2023-05-02T23:57:39.573Z,3.43
